createdAt,value
2019-03-29T03:20:51.281Z,7.20
2019-03-29T03:23:40.558Z,7.43
2019-03-29T03:26:22.750Z,7.10
2019-03-29T03:29:17.804Z,7.90
2019-03-29T03:32:13.372Z,8.37
2019-03-29T03:35:01.381Z,7.20
2019-03-29T03:38:04.199Z,8.07
2019-03-29T03:41:17.395Z,7.73
2019-03-29T03:44:16.753Z,7.17
2019-03-29T03:47:23.778Z,7.47
2019-03-29T03:50:19.957Z,7.53
2019-03-29T03:53:24.423Z,7.90
2019-03-29T03:56:18.215Z,7.90
2019-03-29T03:59:17.621Z,7.87
2019-03-29T04:02:05.743Z,8.43
2019-03-29T04:05:06.195Z,8.20
2019-03-29T04:07:51.338Z,8.40
2019-03-29T04:10:42.146Z,7.17
2019-03-29T04:13:23.813Z,7.87
2019-03-29T04:16:18.815Z,8.50
2019-03-29T04:19:27.279Z,7.77
2019-03-29T04:22:40.937Z,8.13
2019-03-29T04:25:25.101Z,8.10
2019-03-29T04:28:28.453Z,9.13
2019-03-29T04:31:13.159Z,8.80
2019-03-29T04:34:09.581Z,8.47
2019-03-29T04:40:48.403Z,9.07
2019-03-29T04:43:34.977Z,8.63
2019-03-29T04:47:03.568Z,9.13
2019-03-29T04:50:38.462Z,9.23
2019-03-29T04:53:29.145Z,8.27
2019-03-29T04:56:20.202Z,9.00
2019-03-29T04:59:17.918Z,9.50
2019-03-29T05:02:05.087Z,9.17
2019-03-29T05:04:54.696Z,9.10
2019-03-29T05:07:53.191Z,9.57
2019-03-29T05:10:47.565Z,9.80
2019-03-29T05:13:44.956Z,8.03
2019-03-29T05:17:06.398Z,8.80
2019-03-29T05:23:52.641Z,8.53
2019-03-29T05:36:23.194Z,9.50
2019-03-29T05:39:37.281Z,9.53
2019-03-29T05:42:26.704Z,9.80
2019-03-29T05:45:39.576Z,9.67
2019-03-29T05:49:03.558Z,10.37
2019-03-29T05:58:54.351Z,8.80
2019-03-29T06:02:15.421Z,9.23
2019-03-29T06:07:56.406Z,9.97
2019-03-29T06:10:48.727Z,9.23
2019-03-29T06:13:19.157Z,9.50
2019-03-29T06:16:08.628Z,11.07
2019-03-29T06:18:41.416Z,11.00
2019-03-29T06:21:13.358Z,10.03
2019-03-29T06:24:01.898Z,11.60
2019-03-29T06:26:50.328Z,10.27
2019-03-29T06:29:36.827Z,10.37
2019-03-29T06:32:26.612Z,11.33
2019-03-29T06:35:08.630Z,11.60
2019-03-29T06:37:55.110Z,14.40
2019-03-29T06:40:36.371Z,13.97
2019-03-29T06:43:22.012Z,13.00
2019-03-29T06:46:04.714Z,13.67
2019-03-29T06:48:46.301Z,11.97
2019-03-29T06:51:29.383Z,13.80
2019-03-29T06:54:10.882Z,13.30
2019-03-29T06:56:57.778Z,13.53
2019-03-29T06:59:41.341Z,13.33
2019-03-29T07:02:25.501Z,14.10
2019-03-29T07:05:24.699Z,14.03
2019-03-29T07:08:11.422Z,14.53
2019-03-29T07:11:17.177Z,15.20
2019-03-29T07:14:10.510Z,14.67
2019-03-29T07:16:53.148Z,14.67
2019-03-29T07:19:41.114Z,16.67
2019-03-29T07:22:26.373Z,15.77
2019-03-29T07:25:12.187Z,16.53
2019-03-29T07:27:52.372Z,16.00
2019-03-29T07:30:36.379Z,17.13
2019-03-29T07:33:20.735Z,16.57
2019-03-29T07:35:59.535Z,16.47
2019-03-29T07:38:54.865Z,17.47
2019-03-29T07:41:32.652Z,15.13
2019-03-29T07:44:08.521Z,15.70
2019-03-29T07:46:56.308Z,17.23
2019-03-29T07:49:43.744Z,16.23
2019-03-29T07:52:29.146Z,16.20
2019-03-29T07:55:22.105Z,15.97
2019-03-29T07:58:10.106Z,14.90
2019-03-29T08:01:08.308Z,15.47
2019-03-29T08:03:51.398Z,14.30
2019-03-29T08:06:49.481Z,15.67
2019-03-29T08:09:36.593Z,14.23
2019-03-29T08:12:29.450Z,13.60
2019-03-29T08:15:28.502Z,15.77
2019-03-29T08:18:17.385Z,15.63
2019-03-29T08:21:11.746Z,19.20
2019-03-29T08:24:13.144Z,14.10
2019-03-29T08:27:05.841Z,15.67
2019-03-29T08:29:52.085Z,14.17
2019-03-29T08:32:32.390Z,16.47
2019-03-29T08:35:15.463Z,14.93
2019-03-29T08:37:55.369Z,16.17
2019-03-29T08:40:44.964Z,16.27
2019-03-29T08:43:25.578Z,20.23
2019-03-29T08:46:36.422Z,17.27
2019-03-29T08:49:17.907Z,12.97
2019-03-29T08:51:58.259Z,16.40
2019-03-29T08:54:45.439Z,14.77
2019-03-29T08:57:27.777Z,13.20
2019-03-29T09:00:15.732Z,12.73
2019-03-29T09:02:53.408Z,14.73
2019-03-29T09:05:43.899Z,17.37
2019-03-29T09:08:21.839Z,13.33
2019-03-29T09:11:01.356Z,14.33
2019-03-29T09:13:35.229Z,13.10
2019-03-29T09:16:06.748Z,14.03
2019-03-29T09:18:37.838Z,10.23
2019-03-29T09:21:11.233Z,10.40
2019-03-29T09:23:42.281Z,10.67
2019-03-29T09:26:13.913Z,11.47
2019-03-29T09:28:46.218Z,10.57
2019-03-29T09:31:17.548Z,9.87
2019-03-29T09:33:50.615Z,11.13
2019-03-29T09:36:26.712Z,11.63
2019-03-29T09:39:01.514Z,11.97
2019-03-29T09:41:35.372Z,9.90
2019-03-29T09:44:08.734Z,9.53
2019-03-29T09:46:45.414Z,10.13
2019-03-29T09:49:17.059Z,10.47
2019-03-29T09:52:07.793Z,11.87
2019-03-29T09:54:39.353Z,9.53
2019-03-29T09:57:36.846Z,9.90
2019-03-29T09:59:58.429Z,9.50
2019-03-29T10:02:37.607Z,9.63
2019-03-29T10:05:11.094Z,8.93
2019-03-29T10:08:11.024Z,9.23
2019-03-29T10:10:44.208Z,7.73
2019-03-29T10:13:27.927Z,8.57
2019-03-29T10:16:32.963Z,8.00
2019-03-29T10:19:06.187Z,7.73
2019-03-29T10:21:45.257Z,9.00
2019-03-29T10:24:16.863Z,8.50
2019-03-29T10:26:57.024Z,9.37
2019-03-29T10:29:30.828Z,10.60
2019-03-29T10:32:08.933Z,10.30
2019-03-29T10:34:41.321Z,10.53
2019-03-29T10:38:06.106Z,9.20
2019-03-29T10:40:51.390Z,10.10
2019-03-29T10:43:24.176Z,8.83
2019-03-29T10:46:00.257Z,8.77
2019-03-29T10:48:42.543Z,8.83
2019-03-29T10:51:15.499Z,8.03
2019-03-29T10:53:56.128Z,7.40
2019-03-29T10:56:34.402Z,7.67
2019-03-29T10:59:51.250Z,6.97
2019-03-29T11:02:09.877Z,7.30
2019-03-29T11:04:43.050Z,7.97
2019-03-29T11:07:22.318Z,8.10
2019-03-29T11:09:55.899Z,5.33
2019-03-29T11:12:28.069Z,5.50
2019-03-29T11:20:19.738Z,8.73
2019-03-29T11:22:51.852Z,8.43
2019-03-29T11:25:24.777Z,8.63
2019-03-29T11:27:57.691Z,8.50
2019-03-29T11:30:50.166Z,8.33
2019-03-29T11:33:48.843Z,8.20
2019-03-29T11:36:23.066Z,8.93
2019-03-29T11:38:54.646Z,9.00
2019-03-29T11:41:27.434Z,8.47
2019-03-29T11:44:10.299Z,8.00
2019-03-29T11:46:52.440Z,8.10
2019-03-29T11:49:23.524Z,7.73
2019-03-29T11:51:57.907Z,7.93
2019-03-29T11:54:36.305Z,6.93
2019-03-29T11:57:10.642Z,7.87
2019-03-29T11:59:47.662Z,7.43
2019-03-29T12:02:30.463Z,8.57
2019-03-29T12:04:51.627Z,7.47
2019-03-29T12:07:23.627Z,7.77
2019-03-29T12:10:12.669Z,7.60
2019-03-29T12:13:21.198Z,7.63
2019-03-29T12:15:56.142Z,6.63
2019-03-29T12:26:36.507Z,7.17
2019-03-29T12:29:07.368Z,7.27
2019-03-29T12:31:41.513Z,7.67
2019-03-29T12:34:13.084Z,6.90
2019-03-29T12:36:46.912Z,7.10
2019-03-29T12:39:24.254Z,6.70
2019-03-29T12:41:58.460Z,6.37
2019-03-29T12:44:56.638Z,6.93
2019-03-29T12:47:31.667Z,7.60
2019-03-29T12:50:02.584Z,6.80
2019-03-29T12:52:38.398Z,7.30
2019-03-29T12:55:39.318Z,7.10
2019-03-29T12:58:21.198Z,12.00
2019-03-29T13:01:12.860Z,9.47
2019-03-29T13:03:46.464Z,8.57
2019-03-29T13:06:37.187Z,8.77
2019-03-29T13:09:31.791Z,8.80
2019-03-29T13:12:35.953Z,7.87
2019-03-29T13:15:18.080Z,7.40
2019-03-29T13:17:56.213Z,7.60
2019-03-29T13:20:32.022Z,7.67
2019-03-29T13:23:51.326Z,7.67
2019-03-29T13:26:54.131Z,7.23
2019-03-29T13:29:59.224Z,9.00
2019-03-29T13:33:05.512Z,8.10
2019-03-29T13:35:40.403Z,6.97
2019-03-29T13:38:41.779Z,7.33
2019-03-29T13:41:14.412Z,8.10
2019-03-29T13:43:53.599Z,7.20
2019-03-29T13:46:26.618Z,7.83
2019-03-29T13:49:03.606Z,7.77
2019-03-29T13:51:34.826Z,7.47
2019-03-29T13:54:19.441Z,7.67
2019-03-29T13:57:04.179Z,7.40
2019-03-29T13:59:37.415Z,8.00
2019-03-29T14:10:18.968Z,6.73
2019-03-29T14:13:41.008Z,7.10
2019-03-29T14:16:29.489Z,6.37
2019-03-29T14:18:53.075Z,6.50
2019-03-29T14:55:21.524Z,6.27
2019-03-29T14:58:44.403Z,5.83
2019-03-29T15:01:21.517Z,5.10
2019-03-29T15:03:58.637Z,6.77
2019-03-29T15:06:47.816Z,6.50
2019-03-29T15:09:24.625Z,5.80
2019-03-29T15:15:06.448Z,5.90
2019-03-29T15:18:08.178Z,5.97
2019-03-29T15:20:58.946Z,5.97
2019-03-29T15:23:39.928Z,6.00
2019-03-29T15:34:24.376Z,6.73
2019-03-29T15:37:00.954Z,6.50
2019-03-29T15:39:44.792Z,7.30
2019-03-29T15:42:20.412Z,6.23
2019-03-29T15:44:55.528Z,6.60
2019-03-29T15:47:26.484Z,6.73
2019-03-29T15:49:58.779Z,6.93
2019-03-29T15:52:34.459Z,7.10
2019-03-29T15:55:11.065Z,6.60
2019-03-29T15:57:38.694Z,6.40
2019-03-29T16:00:12.125Z,7.13
2019-03-29T16:02:42.856Z,6.03
2019-03-29T16:05:13.638Z,6.70
2019-03-29T16:07:45.223Z,7.17
2019-03-29T16:10:16.122Z,6.47
2019-03-29T16:12:46.774Z,6.60
2019-03-29T16:15:33.626Z,6.67
2019-03-29T16:17:55.081Z,6.10
2019-03-29T16:20:27.943Z,6.47
2019-03-29T16:22:59.020Z,5.73
2019-03-29T16:25:31.167Z,5.73
2019-03-29T16:28:02.036Z,6.50
2019-03-29T16:30:34.544Z,7.00
2019-03-29T16:33:08.496Z,6.93
2019-03-29T16:35:39.411Z,6.83
2019-03-29T16:38:10.457Z,7.43
2019-03-29T16:40:47.256Z,7.90
2019-03-29T16:43:17.865Z,13.43
2019-03-29T16:45:48.647Z,9.17
2019-03-29T16:48:19.638Z,7.30
2019-03-29T16:50:50.332Z,6.63
2019-03-29T16:53:24.467Z,7.60
2019-03-29T16:55:56.059Z,7.37
2019-03-29T16:58:37.419Z,7.03
2019-03-29T17:01:13.945Z,6.83
2019-03-29T17:03:44.523Z,7.17
2019-03-29T17:06:22.121Z,7.10
2019-03-29T17:08:53.391Z,6.80
2019-03-29T17:11:24.106Z,8.27
2019-03-29T17:13:58.312Z,8.10
2019-03-29T17:16:33.537Z,8.37
2019-03-29T17:19:07.522Z,8.20
2019-03-29T17:21:41.938Z,7.50
2019-03-29T17:24:15.496Z,7.13
2019-03-29T17:26:46.319Z,7.97
2019-03-29T17:29:19.819Z,7.57
2019-03-29T17:31:53.124Z,6.93
2019-03-29T17:34:26.804Z,7.43
2019-03-29T17:37:00.721Z,7.87
2019-03-29T17:39:34.141Z,7.60
2019-03-29T17:42:05.041Z,7.17
2019-03-29T17:44:37.347Z,6.50
2019-03-29T17:47:08.656Z,6.20
2019-03-29T17:49:39.596Z,6.80
2019-03-29T17:52:11.126Z,6.57
2019-03-29T17:54:42.011Z,6.40
2019-03-29T17:57:13.603Z,5.93
2019-03-29T17:59:47.565Z,6.60
2019-03-29T18:02:18.954Z,6.03
2019-03-29T18:04:49.898Z,7.30
2019-03-29T18:07:23.284Z,6.70
2019-03-29T18:09:59.364Z,6.90
2019-03-29T18:12:36.412Z,6.83
2019-03-29T18:15:08.757Z,6.10
2019-03-29T18:17:40.148Z,7.07
2019-03-29T18:20:19.423Z,7.03
2019-03-29T18:23:01.337Z,6.83
2019-03-29T18:25:32.528Z,6.80
2019-03-29T18:28:03.507Z,6.57
2019-03-29T18:30:43.836Z,7.33
2019-03-29T18:33:16.650Z,7.17
2019-03-29T18:35:54.917Z,6.60
2019-03-29T18:38:28.917Z,5.83
2019-03-29T18:40:59.912Z,5.73
2019-03-29T18:43:30.944Z,5.93
2019-03-29T18:46:18.119Z,6.63
2019-03-29T18:48:49.300Z,5.73
2019-03-29T18:51:23.357Z,7.57
2019-03-29T18:53:53.882Z,7.10
2019-03-29T18:56:24.674Z,12.97
2019-03-29T18:59:02.489Z,10.73
2019-03-29T19:01:41.053Z,15.73
2019-03-29T19:04:17.308Z,16.50
2019-03-29T19:06:48.541Z,13.57
2019-03-29T19:09:22.882Z,10.93
2019-03-29T19:12:00.682Z,9.30
2019-03-29T19:14:34.934Z,7.90
2019-03-29T19:17:11.764Z,7.17
2019-03-29T19:19:46.728Z,7.20
2019-03-29T19:22:19.915Z,6.37
2019-03-29T19:24:54.657Z,7.07
2019-03-29T19:27:27.933Z,6.60
2019-03-29T19:29:58.950Z,6.30
2019-03-29T19:32:33.166Z,5.47
2019-03-29T19:35:06.504Z,5.40
2019-03-29T19:37:37.439Z,4.60
2019-03-29T19:40:15.831Z,4.03
2019-03-29T19:42:52.319Z,4.57
2019-03-29T19:45:23.693Z,4.63
2019-03-29T19:48:01.494Z,4.63
2019-03-29T19:50:31.315Z,5.00
2019-03-29T19:53:20.160Z,4.47
2019-03-29T19:55:58.863Z,4.73
2019-03-29T19:58:33.210Z,4.90
2019-03-29T20:01:07.653Z,4.97
2019-03-29T20:03:42.714Z,5.60
2019-03-29T20:06:30.983Z,4.93
2019-03-29T20:09:01.829Z,5.00
2019-03-29T20:11:37.069Z,5.60
2019-03-29T20:14:34.278Z,4.90
2019-03-29T20:17:26.676Z,5.00
2019-03-29T20:19:53.105Z,4.67
2019-03-29T20:22:25.574Z,5.23
2019-03-29T20:24:59.039Z,5.23
2019-03-29T20:27:35.336Z,4.97
2019-03-29T20:30:10.712Z,5.40
2019-03-29T20:32:45.023Z,5.17
2019-03-29T20:35:18.146Z,5.13
2019-03-29T20:37:58.968Z,5.03
2019-03-29T20:40:40.364Z,5.03
2019-03-29T20:43:15.352Z,5.63
2019-03-29T20:45:51.531Z,4.70
2019-03-29T20:48:29.589Z,5.00
2019-03-29T20:51:05.584Z,5.13
2019-03-29T20:53:43.497Z,4.67
2019-03-29T20:56:29.054Z,5.90
2019-03-29T20:59:02.700Z,5.30
2019-03-29T21:01:43.994Z,5.87
2019-03-29T21:04:19.363Z,6.10
2019-03-29T21:06:51.064Z,4.93
2019-03-29T21:09:26.479Z,5.90
2019-03-29T21:12:21.637Z,5.33
2019-03-29T21:14:56.443Z,6.43
2019-03-29T21:17:30.648Z,6.13
2019-03-29T21:20:06.909Z,6.97
2019-03-29T21:22:40.501Z,7.63
2019-03-29T21:25:24.771Z,9.03
2019-03-29T21:27:59.337Z,8.23
2019-03-29T21:30:30.424Z,8.80
2019-03-29T21:33:01.597Z,7.47
2019-03-29T21:35:33.925Z,7.97
2019-03-29T21:38:21.298Z,7.87
2019-03-29T21:40:56.409Z,7.80
2019-03-29T21:43:32.122Z,7.13
2019-03-29T21:46:20.319Z,7.03
2019-03-29T21:48:51.002Z,5.53
2019-03-29T21:51:26.438Z,5.10
2019-03-29T21:54:00.383Z,5.90
2019-03-29T21:56:51.394Z,5.43
2019-03-29T21:59:25.052Z,5.13
2019-03-29T22:01:59.420Z,4.70
2019-03-29T22:04:36.165Z,4.97
2019-03-29T22:07:14.162Z,4.67
2019-03-29T22:09:52.532Z,4.77
2019-03-29T22:12:24.564Z,5.03
2019-03-29T22:14:57.948Z,4.93
2019-03-29T22:17:28.559Z,4.53
2019-03-29T22:19:59.242Z,4.10
2019-03-29T22:22:32.935Z,4.73
2019-03-29T22:25:07.606Z,4.07
2019-03-29T22:27:38.210Z,4.57
2019-03-29T22:30:09.698Z,4.77
2019-03-29T22:32:41.049Z,4.23
2019-03-29T22:35:12.976Z,4.63
2019-03-29T22:37:44.044Z,5.27
2019-03-29T22:40:15.123Z,5.27
2019-03-29T22:42:48.073Z,5.00
2019-03-29T22:45:20.214Z,5.00
2019-03-29T22:47:55.839Z,4.37
2019-03-29T22:50:26.923Z,5.03
2019-03-29T22:52:59.092Z,4.93
2019-03-29T22:55:30.014Z,5.10
2019-03-29T22:58:00.586Z,5.27
2019-03-29T23:00:37.592Z,5.70
2019-03-29T23:03:08.769Z,7.00
2019-03-29T23:05:40.766Z,10.37
2019-03-29T23:08:12.012Z,10.87
2019-03-29T23:10:42.609Z,10.77
2019-03-29T23:13:18.871Z,9.53
2019-03-29T23:15:49.754Z,9.67
2019-03-29T23:18:20.271Z,8.33
2019-03-29T23:20:50.846Z,8.63
2019-03-29T23:23:21.489Z,8.20
2019-03-29T23:25:55.105Z,7.27
2019-03-29T23:28:29.633Z,7.40
2019-03-29T23:31:00.408Z,6.63
2019-03-29T23:33:31.240Z,6.00
2019-03-29T23:36:02.063Z,6.53
2019-03-29T23:38:32.679Z,5.73
2019-03-29T23:41:03.266Z,5.90
2019-03-29T23:43:35.448Z,4.97
2019-03-29T23:46:06.159Z,5.50
2019-03-29T23:48:36.645Z,5.70
2019-03-29T23:51:07.475Z,5.57
2019-03-29T23:53:40.249Z,5.43
2019-03-29T23:56:11.215Z,5.40
2019-03-29T23:58:41.774Z,6.10
